Time;durP1;ratioP1;P1;durP2;ratioP2;P2;SDS_P1;SDS_P2;PMS_P1;PMS_P2;Temp;Humidity;BMP_temperature;BMP_pressure;BME280_temperature;BME280_humidity;BME280_pressure;Samples;Min_cycle;Max_cycle;Signal;HPM_P1;HPM_P2
2023/01/18 00:01:06;;;;;;;1.60;1.03;;;;;;;;;;6245496;23;20004;-71
2023/01/18 00:03:33;;;;;;;1.57;0.90;;;;;;;;;;6245784;23;20007;-72
2023/01/18 00:06:00;;;;;;;1.60;1.10;;;;;;;;;;6245932;23;20008;-71
2023/01/18 00:08:27;;;;;;;3.67;0.83;;;;;;;;;;6218892;23;20015;-71
2023/01/18 00:10:53;;;;;;;1.97;0.80;;;;;;;;;;6245956;23;20330;-71
2023/01/18 00:13:19;;;;;;;1.10;0.67;;;;;;;;;;6244949;23;20079;-71
2023/01/18 00:15:45;;;;;;;1.57;0.77;;;;;;;;;;6245323;23;20004;-72
2023/01/18 00:18:11;;;;;;;1.40;0.70;;;;;;;;;;6245925;23;20075;-72
2023/01/18 00:20:37;;;;;;;1.67;0.90;;;;;;;;;;6245295;23;20431;-72
2023/01/18 00:23:03;;;;;;;0.83;0.60;;;;;;;;;;6245674;23;20039;-72
2023/01/18 00:25:29;;;;;;;1.27;0.70;;;;;;;;;;6245521;23;20067;-72
2023/01/18 00:27:56;;;;;;;1.63;0.70;;;;;;;;;;6246108;23;20000;-72
2023/01/18 00:30:23;;;;;;;1.07;0.70;;;;;;;;;;6245761;23;20079;-71
2023/01/18 00:32:52;;;;;;;3.30;0.80;;;;;;;;;;6245610;23;20438;-71
2023/01/18 00:35:20;;;;;;;0.70;0.60;;;;;;;;;;6219121;23;20377;-72
2023/01/18 00:37:47;;;;;;;1.00;0.70;;;;;;;;;;6245791;22;20012;-72
2023/01/18 00:40:13;;;;;;;1.37;0.77;;;;;;;;;;6245975;23;20028;-71
2023/01/18 00:45:25;;;;;;;1.27;0.70;;;;;;;;;;6245712;23;20035;-72
2023/01/18 00:47:51;;;;;;;0.90;0.60;;;;;;;;;;6245471;23;20050;-73
2023/01/18 00:50:19;;;;;;;1.07;0.60;;;;;;;;;;6245970;23;19997;-72
2023/01/18 00:52:45;;;;;;;2.00;0.80;;;;;;;;;;6246462;23;20004;-72
2023/01/18 00:55:11;;;;;;;1.40;0.90;;;;;;;;;;6245720;23;20080;-72
2023/01/18 00:57:38;;;;;;;1.40;0.90;;;;;;;;;;6245657;23;20071;-72
2023/01/18 01:00:05;;;;;;;1.73;1.00;;;;;;;;;;6245678;23;20004;-72
2023/01/18 01:02:31;;;;;;;3.87;1.33;;;;;;;;;;6245415;23;19997;-72
2023/01/18 01:07:42;;;;;;;3.30;1.40;;;;;;;;;;6245140;23;20446;-71
2023/01/18 01:10:08;;;;;;;2.83;1.50;;;;;;;;;;6218723;23;20449;-72
2023/01/18 01:26:18;;;;;;;3.07;2.27;;;;;;;;;;6245286;23;20107;-73
2023/01/18 01:28:45;;;;;;;2.93;2.00;;;;;;;;;;6245339;23;19997;-72
2023/01/18 01:31:12;;;;;;;3.20;2.10;;;;;;;;;;6245180;23;20004;-72
2023/01/18 01:33:38;;;;;;;3.43;1.93;;;;;;;;;;6245947;23;20007;-72
2023/01/18 01:36:06;;;;;;;6.67;2.20;;;;;;;;;;6247213;23;20418;-72
2023/01/18 01:38:32;;;;;;;2.30;1.80;;;;;;;;;;6246733;23;20015;-72
2023/01/18 01:41:03;;;;;;;5.17;2.00;;;;;;;;;;6247101;23;20049;-72
2023/01/18 01:43:36;;;;;;;3.97;2.20;;;;;;;;;;6246616;23;20007;-71
2023/01/18 01:46:03;;;;;;;4.37;2.63;;;;;;;;;;6246881;23;20015;-72
2023/01/18 01:48:29;;;;;;;3.50;2.50;;;;;;;;;;6247296;23;20108;-72
2023/01/18 01:50:55;;;;;;;4.83;2.77;;;;;;;;;;6246911;23;20027;-72
2023/01/18 01:53:22;;;;;;;2.80;2.40;;;;;;;;;;6246857;23;19997;-72
2023/01/18 01:55:48;;;;;;;3.93;3.20;;;;;;;;;;6247038;23;20004;-72
2023/01/18 01:58:18;;;;;;;3.50;2.93;;;;;;;;;;6217866;23;20004;-73
2023/01/18 02:00:44;;;;;;;3.40;3.03;;;;;;;;;;6243140;23;20004;-72
2023/01/18 02:03:11;;;;;;;3.63;2.90;;;;;;;;;;6243619;23;20146;-72
2023/01/18 02:05:40;;;;;;;3.70;3.30;;;;;;;;;;6245668;23;20004;-72
2023/01/18 02:08:10;;;;;;;4.30;3.50;;;;;;;;;;6246448;23;20000;-72
2023/01/18 02:10:36;;;;;;;3.50;3.20;;;;;;;;;;6219992;23;20465;-72
2023/01/18 02:13:03;;;;;;;3.73;3.17;;;;;;;;;;6246057;23;19996;-72
2023/01/18 02:15:36;;;;;;;4.60;3.77;;;;;;;;;;6220055;23;20669;-72
2023/01/18 02:18:09;;;;;;;5.10;3.50;;;;;;;;;;6246472;23;20008;-72
2023/01/18 02:20:54;;;;;;;6.23;3.40;;;;;;;;;;6245539;23;20003;-72
2023/01/18 02:23:39;;;;;;;3.73;3.07;;;;;;;;;;6246808;23;20133;-72
2023/01/18 02:26:17;;;;;;;4.63;3.30;;;;;;;;;;6219662;23;20042;-72
2023/01/18 02:28:49;;;;;;;5.00;4.23;;;;;;;;;;6245871;23;20000;-72
2023/01/18 02:31:17;;;;;;;5.33;4.83;;;;;;;;;;6245974;23;19996;-71
2023/01/18 02:33:45;;;;;;;5.40;4.90;;;;;;;;;;6245912;23;20004;-71
2023/01/18 02:36:17;;;;;;;5.77;5.17;;;;;;;;;;6245539;23;20030;-72
2023/01/18 02:38:46;;;;;;;7.47;5.43;;;;;;;;;;6246038;23;20011;-72
2023/01/18 02:41:18;;;;;;;6.27;5.10;;;;;;;;;;6246374;23;20075;-73
2023/01/18 02:46:34;;;;;;;8.93;5.70;;;;;;;;;;6246388;23;20028;-72
2023/01/18 02:49:02;;;;;;;6.17;5.37;;;;;;;;;;6246439;23;20028;-72
2023/01/18 02:51:28;;;;;;;6.87;5.67;;;;;;;;;;6246475;23;20031;-72
2023/01/18 02:53:54;;;;;;;6.80;5.33;;;;;;;;;;6246347;23;20052;-72
2023/01/18 02:56:38;;;;;;;6.73;5.40;;;;;;;;;;6246388;23;20312;-73
2023/01/18 02:59:09;;;;;;;6.00;5.20;;;;;;;;;;6246322;23;20061;-72
2023/01/18 03:01:38;;;;;;;6.60;6.00;;;;;;;;;;6246560;23;20002;-72
2023/01/18 03:04:07;;;;;;;8.73;6.00;;;;;;;;;;6246076;23;20438;-72
2023/01/18 03:06:34;;;;;;;7.37;5.93;;;;;;;;;;6246061;23;20016;-72
2023/01/18 03:09:00;;;;;;;7.33;6.03;;;;;;;;;;6245853;23;20028;-72
2023/01/18 03:11:31;;;;;;;8.67;6.27;;;;;;;;;;6219029;23;20004;-73
2023/01/18 03:13:57;;;;;;;6.10;5.50;;;;;;;;;;6246059;23;19996;-72
2023/01/18 03:16:25;;;;;;;7.33;6.27;;;;;;;;;;6219472;23;20343;-72
2023/01/18 03:19:01;;;;;;;6.43;5.80;;;;;;;;;;6246278;23;20007;-72
2023/01/18 03:21:30;;;;;;;7.80;6.20;;;;;;;;;;6246266;23;20000;-72
2023/01/18 03:23:57;;;;;;;7.03;6.33;;;;;;;;;;6246093;23;20004;-72
2023/01/18 03:26:23;;;;;;;7.93;6.43;;;;;;;;;;6245929;23;20044;-72
2023/01/18 03:34:35;;;;;;;6.77;6.07;;;;;;;;;;6245979;23;20062;-71
2023/01/18 03:37:03;;;;;;;7.20;6.50;;;;;;;;;;6245694;23;20086;-72
2023/01/18 03:39:35;;;;;;;9.07;6.83;;;;;;;;;;6246095;23;20529;-72
2023/01/18 03:42:12;;;;;;;7.82;6.85;;;;;;;;;;6246207;23;20034;-71
2023/01/18 03:44:43;;;;;;;7.93;7.13;;;;;;;;;;6246077;23;20054;-72
2023/01/18 03:47:09;;;;;;;9.90;7.00;;;;;;;;;;6218755;23;20029;-72
2023/01/18 03:49:35;;;;;;;8.20;7.23;;;;;;;;;;6218992;23;20418;-72
2023/01/18 03:52:14;;;;;;;8.30;6.90;;;;;;;;;;6245910;23;20000;-70
2023/01/18 03:54:43;;;;;;;7.63;6.60;;;;;;;;;;6245739;23;20079;-72
2023/01/18 03:57:16;;;;;;;7.40;6.70;;;;;;;;;;6245565;23;20008;-72
2023/01/18 03:59:42;;;;;;;6.97;6.27;;;;;;;;;;6245873;23;20008;-72
2023/01/18 04:02:09;;;;;;;6.83;6.13;;;;;;;;;;6219063;23;19996;-71
2023/01/18 04:04:35;;;;;;;6.63;6.00;;;;;;;;;;6245757;23;20004;-72
2023/01/18 04:07:01;;;;;;;8.97;6.20;;;;;;;;;;6245635;23;20008;-71
2023/01/18 04:09:27;;;;;;;7.87;6.67;;;;;;;;;;6245421;23;20007;-71
2023/01/18 04:11:53;;;;;;;6.30;5.70;;;;;;;;;;6245654;23;20087;-71
2023/01/18 04:14:19;;;;;;;7.17;5.70;;;;;;;;;;6245743;23;20000;-71
2023/01/18 04:16:45;;;;;;;6.93;6.30;;;;;;;;;;6246015;23;20000;-72
2023/01/18 04:19:11;;;;;;;7.00;6.30;;;;;;;;;;6245691;23;20000;-73
2023/01/18 04:21:37;;;;;;;6.00;5.40;;;;;;;;;;6245487;23;20011;-72
2023/01/18 04:24:04;;;;;;;5.87;5.27;;;;;;;;;;6245577;23;20058;-72
2023/01/18 04:26:32;;;;;;;7.70;5.43;;;;;;;;;;6245708;23;20020;-72
2023/01/18 04:28:59;;;;;;;6.73;5.50;;;;;;;;;;6245772;23;19996;-72
2023/01/18 04:31:25;;;;;;;8.53;5.57;;;;;;;;;;6245795;23;20005;-71
2023/01/18 04:33:51;;;;;;;5.93;5.23;;;;;;;;;;6245661;23;20000;-71
2023/01/18 04:36:17;;;;;;;6.53;5.50;;;;;;;;;;6245592;23;20000;-71
2023/01/18 04:38:43;;;;;;;5.90;5.20;;;;;;;;;;6245430;23;20019;-72
2023/01/18 04:41:09;;;;;;;6.63;5.67;;;;;;;;;;6245544;23;20079;-71
2023/01/18 04:43:35;;;;;;;8.53;6.13;;;;;;;;;;6245609;23;20058;-72
2023/01/18 04:46:02;;;;;;;6.23;5.63;;;;;;;;;;6245544;23;20088;-72
2023/01/18 04:48:28;;;;;;;7.87;5.67;;;;;;;;;;6245509;23;20023;-71
2023/01/18 04:50:54;;;;;;;7.10;5.80;;;;;;;;;;6245175;23;20371;-72
2023/01/18 04:53:20;;;;;;;8.43;6.00;;;;;;;;;;6245256;23;20319;-72
2023/01/18 04:55:46;;;;;;;7.47;5.80;;;;;;;;;;6245257;23;20004;-71
2023/01/18 04:58:12;;;;;;;7.40;6.23;;;;;;;;;;6245384;23;19996;-71
2023/01/18 05:00:39;;;;;;;8.50;5.77;;;;;;;;;;6245661;23;20000;-72
2023/01/18 05:03:06;;;;;;;6.27;5.63;;;;;;;;;;6245445;23;20000;-72
2023/01/18 05:05:32;;;;;;;6.77;5.80;;;;;;;;;;6245372;23;20004;-72
2023/01/18 05:07:58;;;;;;;6.87;6.17;;;;;;;;;;6245484;23;20075;-72
2023/01/18 05:10:24;;;;;;;8.27;5.73;;;;;;;;;;6247309;23;20000;-72
2023/01/18 05:12:50;;;;;;;6.43;5.83;;;;;;;;;;6247528;23;20075;-72
2023/01/18 05:15:17;;;;;;;6.70;6.00;;;;;;;;;;6247394;23;20065;-72
2023/01/18 05:17:43;;;;;;;6.93;5.83;;;;;;;;;;6247161;23;20000;-71
2023/01/18 05:20:10;;;;;;;6.63;5.80;;;;;;;;;;6220513;23;20438;-72
2023/01/18 05:22:36;;;;;;;7.13;6.07;;;;;;;;;;6247235;23;20486;-72
2023/01/18 05:25:06;;;;;;;6.67;5.97;;;;;;;;;;6247337;23;20063;-71
2023/01/18 05:27:32;;;;;;;7.17;6.43;;;;;;;;;;6219998;23;20457;-72
2023/01/18 05:29:58;;;;;;;8.03;7.23;;;;;;;;;;6246888;23;20026;-72
2023/01/18 05:32:25;;;;;;;8.97;7.03;;;;;;;;;;6247346;23;20030;-72
2023/01/18 05:34:51;;;;;;;8.33;7.43;;;;;;;;;;6247279;23;19996;-72
2023/01/18 05:37:17;;;;;;;8.70;7.80;;;;;;;;;;6246913;23;20434;-72
2023/01/18 05:39:43;;;;;;;8.10;7.23;;;;;;;;;;6246916;23;19996;-72
2023/01/18 05:42:09;;;;;;;7.50;6.70;;;;;;;;;;6247077;23;20458;-72
2023/01/18 05:44:35;;;;;;;8.23;7.17;;;;;;;;;;6246969;23;20004;-72
2023/01/18 05:47:01;;;;;;;8.83;7.40;;;;;;;;;;6246940;23;20008;-72
2023/01/18 05:49:28;;;;;;;7.60;6.80;;;;;;;;;;6247197;23;20322;-72
2023/01/18 05:51:54;;;;;;;7.50;6.67;;;;;;;;;;6247217;23;20457;-72
2023/01/18 05:54:20;;;;;;;9.77;6.90;;;;;;;;;;6246707;23;20000;-72
2023/01/18 05:56:46;;;;;;;6.60;5.37;;;;;;;;;;6246472;23;20000;-72
2023/01/18 05:59:14;;;;;;;8.13;5.83;;;;;;;;;;6246768;23;20071;-71
2023/01/18 06:01:40;;;;;;;8.63;5.43;;;;;;;;;;6247029;23;20079;-71
2023/01/18 06:04:06;;;;;;;5.90;4.80;;;;;;;;;;6246923;23;20058;-71
2023/01/18 06:06:32;;;;;;;5.90;5.10;;;;;;;;;;6247125;23;20007;-71
2023/01/18 06:09:00;;;;;;;5.93;4.93;;;;;;;;;;6246687;23;20334;-72
2023/01/18 06:11:26;;;;;;;6.00;5.10;;;;;;;;;;6246951;23;20000;-71
2023/01/18 06:13:52;;;;;;;7.23;5.27;;;;;;;;;;6246616;23;20000;-71
2023/01/18 06:16:18;;;;;;;6.67;5.53;;;;;;;;;;6219874;23;20440;-71
2023/01/18 06:18:44;;;;;;;6.37;5.73;;;;;;;;;;6246816;23;20008;-71
2023/01/18 06:21:10;;;;;;;8.03;6.77;;;;;;;;;;6246759;23;20012;-72
2023/01/18 06:23:37;;;;;;;10.50;5.80;;;;;;;;;;6246428;23;20000;-71
2023/01/18 06:26:03;;;;;;;8.33;5.33;;;;;;;;;;6245923;23;20083;-71
2023/01/18 06:28:29;;;;;;;8.07;5.30;;;;;;;;;;6246806;23;20454;-72
2023/01/18 06:30:55;;;;;;;7.13;5.70;;;;;;;;;;6219739;23;20004;-72
2023/01/18 06:33:22;;;;;;;9.70;6.00;;;;;;;;;;6246794;23;20001;-72
2023/01/18 06:35:48;;;;;;;9.63;7.23;;;;;;;;;;6246584;23;20007;-71
2023/01/18 06:38:14;;;;;;;7.70;6.90;;;;;;;;;;6246422;22;20012;-71
2023/01/18 06:40:40;;;;;;;7.97;6.77;;;;;;;;;;6246531;23;20067;-71
2023/01/18 06:43:09;;;;;;;7.47;6.70;;;;;;;;;;6246218;23;20007;-72
2023/01/18 06:45:35;;;;;;;10.03;7.70;;;;;;;;;;6219418;23;20008;-72
2023/01/18 06:48:01;;;;;;;9.13;7.60;;;;;;;;;;6246315;23;20114;-72
2023/01/18 06:50:27;;;;;;;10.27;7.07;;;;;;;;;;6245958;23;20119;-72
2023/01/18 06:52:54;;;;;;;8.87;6.97;;;;;;;;;;6219406;23;20015;-72
2023/01/18 06:55:22;;;;;;;9.77;6.70;;;;;;;;;;6246097;23;20004;-72
2023/01/18 06:57:48;;;;;;;9.03;7.73;;;;;;;;;;6246434;23;20023;-72
2023/01/18 07:00:15;;;;;;;12.50;7.90;;;;;;;;;;6245103;23;20419;-72
2023/01/18 07:02:41;;;;;;;18.27;11.40;;;;;;;;;;6217736;23;20004;-70
2023/01/18 07:05:07;;;;;;;17.03;11.93;;;;;;;;;;6218989;23;20015;-71
2023/01/18 07:07:33;;;;;;;16.70;12.10;;;;;;;;;;6245526;23;20150;-71
2023/01/18 07:10:00;;;;;;;12.80;10.33;;;;;;;;;;6245718;23;20005;-72
2023/01/18 07:12:26;;;;;;;12.47;9.80;;;;;;;;;;6245559;23;20011;-71
2023/01/18 07:14:52;;;;;;;13.10;9.83;;;;;;;;;;6245601;23;20058;-70
2023/01/18 07:17:18;;;;;;;10.10;8.93;;;;;;;;;;6245599;23;20004;-72
2023/01/18 07:19:44;;;;;;;10.63;8.77;;;;;;;;;;6245473;23;20000;-72
2023/01/18 07:22:10;;;;;;;10.87;8.13;;;;;;;;;;6218584;23;20011;-72
2023/01/18 07:24:36;;;;;;;15.47;9.20;;;;;;;;;;6245461;23;20000;-71
2023/01/18 07:27:02;;;;;;;12.93;9.00;;;;;;;;;;6245888;23;20039;-71
2023/01/18 07:29:28;;;;;;;12.63;9.27;;;;;;;;;;6245680;23;20070;-70
2023/01/18 07:31:55;;;;;;;11.37;9.90;;;;;;;;;;6245280;23;20091;-72
2023/01/18 07:34:21;;;;;;;14.43;10.00;;;;;;;;;;6245627;23;20007;-71
2023/01/18 07:36:47;;;;;;;12.80;10.27;;;;;;;;;;6218816;23;20095;-72
2023/01/18 07:39:13;;;;;;;13.80;10.47;;;;;;;;;;6218392;23;20007;-71
2023/01/18 07:41:39;;;;;;;13.40;10.90;;;;;;;;;;6245090;23;20015;-71
2023/01/18 07:44:05;;;;;;;12.97;10.67;;;;;;;;;;6245317;23;19996;-71
2023/01/18 07:46:32;;;;;;;15.60;10.70;;;;;;;;;;6245747;23;20066;-71
2023/01/18 07:48:58;;;;;;;14.07;10.60;;;;;;;;;;6245792;23;20000;-76
2023/01/18 07:51:24;;;;;;;13.33;10.40;;;;;;;;;;6245704;23;19996;-77
2023/01/18 07:53:54;;;;;;;13.67;11.83;;;;;;;;;;6245309;23;20079;-76
2023/01/18 07:56:21;;;;;;;15.47;11.57;;;;;;;;;;6245333;23;20011;-77
2023/01/18 07:58:48;;;;;;;14.33;11.80;;;;;;;;;;6245503;23;20027;-74
2023/01/18 08:01:18;;;;;;;22.00;11.83;;;;;;;;;;6244802;23;20011;-74
2023/01/18 08:03:46;;;;;;;16.63;12.70;;;;;;;;;;6245445;23;20035;-73
2023/01/18 08:06:12;;;;;;;16.77;12.73;;;;;;;;;;6245288;23;20008;-72
2023/01/18 08:08:38;;;;;;;15.97;13.70;;;;;;;;;;6244660;23;20007;-75
2023/01/18 08:11:05;;;;;;;16.67;13.47;;;;;;;;;;6218676;23;20004;-72
2023/01/18 08:13:32;;;;;;;20.63;14.23;;;;;;;;;;6245057;23;19996;-72
2023/01/18 08:15:59;;;;;;;15.10;13.40;;;;;;;;;;6245169;23;20005;-72
2023/01/18 08:18:25;;;;;;;16.43;13.30;;;;;;;;;;6245347;23;20000;-72
2023/01/18 08:20:51;;;;;;;15.77;12.80;;;;;;;;;;6245508;23;20004;-71
2023/01/18 08:23:17;;;;;;;20.03;12.23;;;;;;;;;;6245358;23;19996;-72
2023/01/18 08:25:44;;;;;;;15.60;11.60;;;;;;;;;;6245428;23;20008;-73
2023/01/18 08:28:10;;;;;;;14.43;11.53;;;;;;;;;;6244950;23;20070;-71
2023/01/18 08:30:37;;;;;;;14.60;10.87;;;;;;;;;;6245254;23;20000;-72
2023/01/18 08:33:04;;;;;;;13.00;10.23;;;;;;;;;;6245269;23;20127;-72
2023/01/18 08:35:31;;;;;;;12.77;10.37;;;;;;;;;;6244997;23;20004;-73
2023/01/18 08:37:58;;;;;;;12.73;10.83;;;;;;;;;;6245129;22;20019;-74
2023/01/18 08:40:24;;;;;;;14.17;10.27;;;;;;;;;;6244981;23;19996;-73
2023/01/18 08:42:51;;;;;;;13.03;10.63;;;;;;;;;;6246642;23;20005;-73
2023/01/18 08:45:17;;;;;;;15.87;10.07;;;;;;;;;;6247670;23;20004;-73
2023/01/18 08:47:43;;;;;;;17.97;10.73;;;;;;;;;;6247509;23;20000;-73
2023/01/18 08:50:10;;;;;;;18.10;11.23;;;;;;;;;;6247297;23;20085;-73
2023/01/18 08:52:36;;;;;;;11.03;9.17;;;;;;;;;;6246857;23;20326;-74
2023/01/18 08:55:03;;;;;;;11.30;9.73;;;;;;;;;;6220791;23;20011;-73
2023/01/18 08:57:29;;;;;;;14.23;9.70;;;;;;;;;;6247460;23;20011;-73
2023/01/18 08:59:55;;;;;;;12.10;9.40;;;;;;;;;;6247343;23;20046;-73
2023/01/18 09:02:21;;;;;;;11.97;9.70;;;;;;;;;;6247389;23;20005;-73
2023/01/18 09:04:48;;;;;;;11.00;9.90;;;;;;;;;;6247057;23;20327;-73
2023/01/18 09:07:14;;;;;;;11.60;10.13;;;;;;;;;;6246853;23;20008;-72
2023/01/18 09:09:41;;;;;;;12.73;10.60;;;;;;;;;;6247140;23;20000;-73
2023/01/18 09:12:07;;;;;;;11.23;10.03;;;;;;;;;;6220318;23;20031;-72
2023/01/18 09:14:33;;;;;;;11.83;9.53;;;;;;;;;;6247202;23;20422;-73
2023/01/18 09:16:59;;;;;;;12.07;10.00;;;;;;;;;;6247046;23;20020;-74
2023/01/18 09:19:25;;;;;;;17.73;9.87;;;;;;;;;;6247073;23;20001;-73
2023/01/18 09:21:51;;;;;;;12.13;9.43;;;;;;;;;;6247207;23;20000;-73
2023/01/18 09:24:17;;;;;;;12.83;9.53;;;;;;;;;;6247115;23;20000;-73
2023/01/18 09:26:45;;;;;;;10.87;9.60;;;;;;;;;;6246598;23;20091;-73
2023/01/18 09:29:11;;;;;;;12.00;9.77;;;;;;;;;;6246816;23;20028;-73
2023/01/18 09:31:37;;;;;;;11.33;9.83;;;;;;;;;;6246384;23;20015;-72
2023/01/18 09:34:03;;;;;;;11.83;10.40;;;;;;;;;;6246654;23;19996;-73
2023/01/18 09:36:29;;;;;;;12.50;10.27;;;;;;;;;;6246445;22;20430;-73
2023/01/18 09:38:55;;;;;;;12.90;11.27;;;;;;;;;;6246739;23;20004;-73
2023/01/18 09:41:31;;;;;;;15.67;11.00;;;;;;;;;;6246389;23;20508;-75
2023/01/18 09:44:00;;;;;;;15.67;12.13;;;;;;;;;;6246418;23;20003;-74
2023/01/18 09:46:26;;;;;;;18.13;13.10;;;;;;;;;;6246080;23;20034;-74
2023/01/18 09:48:57;;;;;;;20.93;14.80;;;;;;;;;;6219123;23;20008;-74
2023/01/18 09:51:47;;;;;;;16.20;12.70;;;;;;;;;;6245711;23;20008;-74
2023/01/18 09:54:25;;;;;;;16.67;11.70;;;;;;;;;;6245330;23;20036;-73
2023/01/18 09:57:00;;;;;;;14.73;11.90;;;;;;;;;;6245727;23;19996;-73
2023/01/18 09:59:41;;;;;;;17.90;12.63;;;;;;;;;;6219006;23;20027;-73
2023/01/18 10:02:18;;;;;;;14.13;11.03;;;;;;;;;;6245986;23;20007;-73
2023/01/18 10:04:46;;;;;;;13.80;10.67;;;;;;;;;;6246222;23;20438;-73
2023/01/18 10:07:15;;;;;;;13.40;10.93;;;;;;;;;;6246174;23;20070;-74
2023/01/18 10:09:48;;;;;;;15.70;10.70;;;;;;;;;;6245949;23;20506;-74
2023/01/18 10:12:29;;;;;;;12.63;9.83;;;;;;;;;;6246083;23;20000;-73
2023/01/18 10:15:04;;;;;;;13.83;10.07;;;;;;;;;;6245933;23;20007;-73
2023/01/18 10:17:35;;;;;;;18.83;12.30;;;;;;;;;;6246266;23;20004;-74
2023/01/18 10:20:12;;;;;;;18.17;11.87;;;;;;;;;;6220235;23;20008;-73
2023/01/18 10:22:44;;;;;;;19.50;12.33;;;;;;;;;;6246737;23;20362;-73
2023/01/18 10:25:28;;;;;;;18.67;12.18;;;;;;;;;;6246224;23;20311;-73
2023/01/18 10:27:57;;;;;;;18.73;11.67;;;;;;;;;;6246083;23;20015;-73
2023/01/18 10:30:30;;;;;;;16.47;12.80;;;;;;;;;;6246055;23;20012;-73
2023/01/18 10:32:57;;;;;;;19.90;12.70;;;;;;;;;;6245519;23;20003;-73
2023/01/18 10:35:38;;;;;;;14.07;11.70;;;;;;;;;;6245484;23;20007;-74
2023/01/18 10:38:08;;;;;;;14.73;11.90;;;;;;;;;;6245471;22;20012;-73
2023/01/18 10:40:35;;;;;;;16.90;11.63;;;;;;;;;;6245550;23;20001;-72
2023/01/18 10:43:03;;;;;;;13.57;10.30;;;;;;;;;;6246115;23;20004;-72
2023/01/18 10:45:34;;;;;;;15.10;10.73;;;;;;;;;;6246196;23;20024;-73
2023/01/18 10:48:26;;;;;;;15.67;10.40;;;;;;;;;;6246001;23;20012;-72
2023/01/18 10:50:58;;;;;;;12.98;9.48;;;;;;;;;;6241099;23;20019;-73
2023/01/18 10:53:25;;;;;;;12.05;9.27;;;;;;;;;;6246134;23;20359;-73
2023/01/18 10:55:51;;;;;;;14.17;9.93;;;;;;;;;;6245663;23;20006;-73
2023/01/18 10:58:23;;;;;;;13.53;10.00;;;;;;;;;;6245037;23;20004;-73
2023/01/18 11:00:53;;;;;;;13.13;10.40;;;;;;;;;;6245309;23;20503;-72
2023/01/18 11:03:19;;;;;;;18.30;10.83;;;;;;;;;;6245059;23;20433;-74
2023/01/18 11:05:45;;;;;;;13.00;9.90;;;;;;;;;;6245268;23;20107;-73
2023/01/18 11:08:20;;;;;;;13.33;10.03;;;;;;;;;;6245729;23;19996;-73
2023/01/18 11:10:56;;;;;;;14.27;10.53;;;;;;;;;;6246321;23;20013;-72
2023/01/18 11:13:24;;;;;;;13.20;10.70;;;;;;;;;;6245593;23;20007;-73
2023/01/18 11:16:14;;;;;;;13.97;11.60;;;;;;;;;;6245763;23;20000;-73
2023/01/18 11:18:55;;;;;;;15.57;11.87;;;;;;;;;;6245839;23;20426;-73
2023/01/18 11:21:22;;;;;;;14.43;11.10;;;;;;;;;;6245659;23;20418;-72
2023/01/18 11:23:51;;;;;;;14.53;11.70;;;;;;;;;;6245751;23;20347;-72
2023/01/18 11:26:18;;;;;;;14.03;12.03;;;;;;;;;;6245154;23;20011;-73
2023/01/18 11:28:44;;;;;;;15.80;12.37;;;;;;;;;;6244306;23;19996;-73
2023/01/18 11:31:14;;;;;;;17.63;12.17;;;;;;;;;;6245507;23;20127;-74
2023/01/18 11:33:48;;;;;;;16.47;12.17;;;;;;;;;;6245411;23;20070;-73
2023/01/18 11:36:14;;;;;;;15.53;11.97;;;;;;;;;;6245180;23;20035;-72
2023/01/18 11:38:40;;;;;;;18.23;13.50;;;;;;;;;;6245243;23;20020;-72
2023/01/18 11:41:06;;;;;;;18.07;14.17;;;;;;;;;;6245512;23;20092;-72
2023/01/18 11:43:35;;;;;;;19.53;14.97;;;;;;;;;;6245452;23;20426;-73
2023/01/18 11:46:05;;;;;;;17.10;13.73;;;;;;;;;;6245313;23;20070;-73
2023/01/18 11:48:37;;;;;;;19.03;14.13;;;;;;;;;;6245381;23;20437;-73
2023/01/18 11:51:15;;;;;;;21.90;12.77;;;;;;;;;;6244073;23;20028;-73
2023/01/18 11:53:54;;;;;;;19.57;14.77;;;;;;;;;;6216712;23;20000;-72
2023/01/18 11:56:39;;;;;;;23.03;14.10;;;;;;;;;;6245562;23;20430;-73
2023/01/18 11:59:12;;;;;;;17.90;13.97;;;;;;;;;;6245353;23;20004;-72
2023/01/18 12:01:40;;;;;;;;;;;;;;;;;;6246000;23;20000;-72
2023/01/18 12:04:10;;;;;;;15.90;10.93;;;;;;;;;;6218569;23;19906;-72
2023/01/18 12:06:55;;;;;;;13.87;10.57;;;;;;;;;;6245145;23;20034;-72
2023/01/18 12:09:30;;;;;;;16.23;10.80;;;;;;;;;;6245128;23;20027;-73
2023/01/18 12:11:56;;;;;;;15.83;9.97;;;;;;;;;;6245574;23;20027;-73
2023/01/18 12:14:23;;;;;;;14.53;9.97;;;;;;;;;;6244987;23;20003;-72
2023/01/18 12:17:09;;;;;;;12.93;9.77;;;;;;;;;;6217840;23;20008;-73
2023/01/18 12:19:35;;;;;;;13.87;9.10;;;;;;;;;;6216717;23;20004;-73
2023/01/18 12:22:08;;;;;;;10.67;8.50;;;;;;;;;;6244687;23;20004;-73
2023/01/18 12:24:54;;;;;;;9.45;6.88;;;;;;;;;;6244785;23;20074;-73
2023/01/18 12:27:52;;;;;;;9.27;7.07;;;;;;;;;;6245384;23;20044;-72
2023/01/18 12:30:30;;;;;;;11.47;7.77;;;;;;;;;;6178487;23;20335;-73
2023/01/18 12:33:03;;;;;;;10.33;7.47;;;;;;;;;;6244622;23;20004;-73
2023/01/18 12:35:38;;;;;;;13.27;8.10;;;;;;;;;;6243726;23;20028;-73
2023/01/18 12:38:24;;;;;;;12.90;8.40;;;;;;;;;;6244252;22;20377;-73
2023/01/18 12:41:11;;;;;;;11.30;8.47;;;;;;;;;;6243494;23;20023;-73
2023/01/18 12:43:48;;;;;;;10.73;8.40;;;;;;;;;;6242688;23;20014;-72
2023/01/18 12:46:35;;;;;;;12.40;8.90;;;;;;;;;;6215752;23;20016;-73
2023/01/18 12:49:04;;;;;;;16.50;9.13;;;;;;;;;;6243543;23;20024;-73
2023/01/18 12:51:33;;;;;;;12.20;9.07;;;;;;;;;;6245045;23;20373;-73
2023/01/18 12:54:02;;;;;;;18.83;10.40;;;;;;;;;;6245146;23;20011;-73
2023/01/18 12:56:48;;;;;;;16.50;11.30;;;;;;;;;;6244975;23;20139;-73
2023/01/18 12:59:19;;;;;;;18.10;10.57;;;;;;;;;;6244636;23;20000;-73
2023/01/18 13:01:50;;;;;;;16.17;10.37;;;;;;;;;;6244507;23;20399;-73
2023/01/18 13:04:22;;;;;;;12.73;9.10;;;;;;;;;;6244152;23;20078;-74
2023/01/18 13:06:54;;;;;;;13.33;9.73;;;;;;;;;;6244336;23;20024;-74
2023/01/18 13:09:22;;;;;;;12.38;8.90;;;;;;;;;;6244546;23;20007;-73
2023/01/18 13:11:48;;;;;;;11.37;8.20;;;;;;;;;;6244869;23;20000;-74
2023/01/18 13:14:25;;;;;;;11.57;8.47;;;;;;;;;;6244827;23;20000;-74
2023/01/18 13:17:11;;;;;;;14.80;8.37;;;;;;;;;;6244763;23;20000;-75
2023/01/18 13:19:50;;;;;;;14.13;8.03;;;;;;;;;;6244470;23;20004;-73
2023/01/18 13:22:37;;;;;;;10.40;8.67;;;;;;;;;;6244196;23;20429;-73
2023/01/18 13:25:22;;;;;;;11.83;8.30;;;;;;;;;;6217871;23;19997;-74
2023/01/18 13:27:58;;;;;;;11.40;7.97;;;;;;;;;;6245252;23;20012;-73
2023/01/18 13:30:24;;;;;;;11.53;7.03;;;;;;;;;;6246073;23;20008;-73
2023/01/18 13:32:51;;;;;;;12.70;7.90;;;;;;;;;;6219891;23;20380;-74
2023/01/18 13:35:27;;;;;;;12.87;7.53;;;;;;;;;;6246582;23;20000;-74
2023/01/18 13:37:58;;;;;;;12.80;7.50;;;;;;;;;;6246138;22;20334;-74
2023/01/18 13:40:26;;;;;;;12.30;7.87;;;;;;;;;;6245749;23;20099;-74
2023/01/18 13:42:52;;;;;;;13.93;7.30;;;;;;;;;;6219517;23;20435;-73
2023/01/18 13:45:18;;;;;;;10.37;7.33;;;;;;;;;;6219009;23;20026;-75
2023/01/18 13:47:49;;;;;;;13.23;7.80;;;;;;;;;;6246051;23;20015;-72
2023/01/18 13:50:27;;;;;;;16.20;8.50;;;;;;;;;;6246182;23;20003;-74
2023/01/18 13:53:12;;;;;;;8.67;6.80;;;;;;;;;;6245819;23;20004;-74
2023/01/18 13:55:39;;;;;;;10.83;6.50;;;;;;;;;;6246129;23;20069;-74
2023/01/18 13:58:16;;;;;;;13.50;7.37;;;;;;;;;;6246074;23;20000;-74
2023/01/18 14:00:46;;;;;;;11.10;6.53;;;;;;;;;;6246738;23;20079;-75
2023/01/18 14:03:16;;;;;;;9.53;7.23;;;;;;;;;;6246310;23;20322;-74
2023/01/18 14:05:43;;;;;;;15.90;8.87;;;;;;;;;;6246224;23;20000;-75
2023/01/18 14:08:17;;;;;;;10.53;7.70;;;;;;;;;;6246215;23;20012;-71
2023/01/18 14:10:47;;;;;;;13.60;7.63;;;;;;;;;;6246251;23;20000;-73
2023/01/18 14:13:16;;;;;;;11.80;7.93;;;;;;;;;;6246010;23;20004;-73
2023/01/18 14:15:43;;;;;;;11.40;8.00;;;;;;;;;;6246275;23;20044;-74
2023/01/18 14:18:16;;;;;;;16.47;9.20;;;;;;;;;;6241849;23;20710;-74
2023/01/18 14:20:48;;;;;;;13.57;8.33;;;;;;;;;;6215876;23;20004;-72
2023/01/18 14:23:14;;;;;;;12.33;9.07;;;;;;;;;;6242555;23;20079;-72
2023/01/18 14:25:48;;;;;;;18.47;9.30;;;;;;;;;;6244434;23;20043;-71
2023/01/18 14:28:21;;;;;;;16.10;9.67;;;;;;;;;;6245680;23;20015;-69
2023/01/18 14:30:47;;;;;;;14.27;9.30;;;;;;;;;;6245929;23;20443;-69
2023/01/18 14:33:17;;;;;;;14.07;8.70;;;;;;;;;;6218711;23;20093;-70
2023/01/18 14:35:53;;;;;;;11.73;8.67;;;;;;;;;;6245856;23;20054;-71
2023/01/18 14:38:19;;;;;;;17.53;12.30;;;;;;;;;;6245752;23;20032;-70
2023/01/18 14:40:47;;;;;;;13.97;11.03;;;;;;;;;;6245375;23;20004;-70
2023/01/18 14:43:15;;;;;;;14.83;11.57;;;;;;;;;;6245323;23;20004;-70
2023/01/18 14:45:47;;;;;;;16.47;11.93;;;;;;;;;;6245817;23;20027;-70
2023/01/18 14:48:18;;;;;;;16.92;11.85;;;;;;;;;;6244797;23;20430;-70
2023/01/18 14:50:46;;;;;;;16.07;12.13;;;;;;;;;;6215324;23;20004;-68
2023/01/18 14:53:14;;;;;;;15.30;10.77;;;;;;;;;;6241528;23;20070;-72
2023/01/18 14:55:40;;;;;;;15.20;10.70;;;;;;;;;;6243618;23;19996;-70
2023/01/18 14:58:17;;;;;;;15.77;10.97;;;;;;;;;;6245376;23;20012;-71
2023/01/18 15:00:47;;;;;;;13.80;10.27;;;;;;;;;;6245896;23;20000;-71
2023/01/18 15:03:14;;;;;;;15.63;10.67;;;;;;;;;;6245680;23;20000;-71
2023/01/18 15:05:41;;;;;;;17.17;11.20;;;;;;;;;;6245717;23;20007;-70
2023/01/18 15:08:08;;;;;;;18.03;12.07;;;;;;;;;;6245883;23;20073;-70
2023/01/18 15:10:35;;;;;;;17.87;11.30;;;;;;;;;;6245642;23;20028;-71